Atwell, West Virginia
Current Conditions -  °F | °C
As of 3:35 PM on Saturday 27 Dec 2014 (Local Time) from KJFZ Reporting Station
Broken Clouds Broken Clouds  
Wind Chill: 58°   Ceiling: 4700
Heat Index: 58°   Visibility: 10mi
Dew Point:   Wind: 8mph
Humidity: 12%   Direction: 230°SW
Pressure: 30.18"   Gusts: 16mph
Location:  37.3433°N, 81.7826°W
Report Text: KJFZ 272035Z AUTO 23007G14KT 10SM BKN047 14/M15 A3018 RMK AO2 T01441148
Loading
Personal Weather Stations






























Interactive Weather Map New forecast layout! Learn more

10-Day Weather Forecast

Advertisements
Track Severe Weather on mobile